createdAt,value
2018-03-07T00:00:56.559Z,79.06
2018-03-07T00:03:24.061Z,79.06
2018-03-07T00:05:51.609Z,79.01
2018-03-07T00:08:19.116Z,79.06
2018-03-07T00:10:46.595Z,79.10
2018-03-07T00:13:14.096Z,79.09
2018-03-07T00:15:41.600Z,79.04
2018-03-07T00:18:09.112Z,79.06
2018-03-07T00:20:36.600Z,79.03
2018-03-07T00:23:04.079Z,79.07
2018-03-07T00:25:31.572Z,79.09
2018-03-07T00:27:59.081Z,79.06
2018-03-07T00:30:26.573Z,79.05
2018-03-07T00:32:54.080Z,79.04
2018-03-07T00:35:21.584Z,79.00
2018-03-07T00:37:49.083Z,79.01
2018-03-07T00:40:16.614Z,79.05
2018-03-07T00:42:46.430Z,79.01
2018-03-07T00:45:13.924Z,79.05
2018-03-07T00:47:41.413Z,79.03
2018-03-07T00:50:08.907Z,79.09
2018-03-07T00:52:36.410Z,79.12
2018-03-07T00:55:03.991Z,79.09
2018-03-07T00:57:31.465Z,79.11
2018-03-07T00:59:58.975Z,79.16
2018-03-07T01:02:26.539Z,79.36
2018-03-07T01:04:54.040Z,79.49
2018-03-07T01:07:21.523Z,79.46
2018-03-07T01:09:49.007Z,79.46
2018-03-07T01:12:16.525Z,79.42
2018-03-07T01:14:44.012Z,79.41
2018-03-07T01:17:11.542Z,79.43
2018-03-07T01:19:39.036Z,79.40
2018-03-07T01:22:06.504Z,79.41
2018-03-07T01:24:33.991Z,79.41
2018-03-07T01:27:01.505Z,79.47
2018-03-07T01:29:29.016Z,79.45
2018-03-07T01:31:56.495Z,79.54
2018-03-07T01:34:23.976Z,79.68
2018-03-07T01:36:51.481Z,79.81
2018-03-07T01:39:18.987Z,79.86
2018-03-07T01:41:46.485Z,79.90
2018-03-07T01:44:13.983Z,79.96
2018-03-07T01:46:41.497Z,80.12
2018-03-07T01:49:08.980Z,80.14
2018-03-07T01:51:48.216Z,80.21
2018-03-07T01:54:15.733Z,80.22
2018-03-07T01:56:43.233Z,80.21
2018-03-07T01:59:10.702Z,80.27
2018-03-07T02:01:38.203Z,80.31
2018-03-07T02:04:05.687Z,80.34
2018-03-07T02:06:33.209Z,80.35
2018-03-07T02:09:00.685Z,80.40
2018-03-07T02:11:28.176Z,80.44
2018-03-07T02:13:55.656Z,80.42
2018-03-07T02:16:23.135Z,80.46
2018-03-07T02:18:50.633Z,80.54
2018-03-07T02:21:18.126Z,80.64
2018-03-07T02:23:45.614Z,80.67
2018-03-07T02:26:13.123Z,80.72
2018-03-07T02:28:40.626Z,80.79
2018-03-07T02:31:08.105Z,80.86
2018-03-07T02:33:35.588Z,80.85
2018-03-07T02:36:03.134Z,80.99
2018-03-07T02:38:30.609Z,81.08
2018-03-07T02:40:58.131Z,81.08
2018-03-07T02:43:25.693Z,81.09
2018-03-07T02:45:53.191Z,81.01
2018-03-07T02:48:20.753Z,80.98
2018-03-07T02:50:48.248Z,80.95
2018-03-07T02:53:15.725Z,80.94
2018-03-07T02:55:43.225Z,80.93
2018-03-07T02:58:10.708Z,80.90
2018-03-07T03:00:38.219Z,80.79
2018-03-07T03:03:05.724Z,80.82
2018-03-07T03:05:33.250Z,80.88
2018-03-07T03:08:00.758Z,80.92
2018-03-07T03:10:28.264Z,80.93
2018-03-07T03:12:55.905Z,80.97
2018-03-07T03:15:23.396Z,80.97
2018-03-07T03:17:50.868Z,80.91
2018-03-07T03:20:18.380Z,80.89
2018-03-07T03:22:45.964Z,81.03
2018-03-07T03:25:13.489Z,81.01
2018-03-07T03:27:40.975Z,80.94
2018-03-07T03:30:08.499Z,80.96
2018-03-07T03:32:36.008Z,81.10
2018-03-07T03:35:03.536Z,81.22
2018-03-07T03:37:31.053Z,81.35
2018-03-07T03:39:58.577Z,81.31
2018-03-07T03:42:26.055Z,81.34
2018-03-07T03:44:53.790Z,81.36
2018-03-07T03:47:21.283Z,81.40
2018-03-07T03:49:48.803Z,81.47
2018-03-07T03:52:16.352Z,81.55
2018-03-07T03:54:43.867Z,81.61
2018-03-07T03:57:11.375Z,81.74
2018-03-07T03:59:38.946Z,81.79
2018-03-07T04:02:06.431Z,81.75
2018-03-07T04:04:34.847Z,81.66
2018-03-07T04:07:02.332Z,81.56
2018-03-07T04:09:29.824Z,81.54
2018-03-07T04:11:57.334Z,81.47
2018-03-07T04:14:24.825Z,81.42
2018-03-07T04:16:52.303Z,81.42
2018-03-07T04:19:19.775Z,81.46
2018-03-07T04:21:47.274Z,81.57
2018-03-07T04:24:14.756Z,81.72
2018-03-07T04:26:42.247Z,81.81
2018-03-07T04:29:09.755Z,81.91
2018-03-07T04:31:37.235Z,81.93
2018-03-07T04:34:04.731Z,81.97
2018-03-07T04:36:32.224Z,82.02
2018-03-07T04:38:59.692Z,82.06
2018-03-07T04:41:27.174Z,82.13
2018-03-07T04:43:54.657Z,82.22
2018-03-07T04:46:22.109Z,82.34
2018-03-07T04:48:49.651Z,82.42
2018-03-07T04:51:17.127Z,82.55
2018-03-07T04:53:44.612Z,82.60
2018-03-07T04:56:12.084Z,82.67
2018-03-07T04:58:39.558Z,82.79
2018-03-07T05:01:07.044Z,82.89
2018-03-07T05:03:34.517Z,82.94
2018-03-07T05:08:24.083Z,82.99
2018-03-07T05:10:51.588Z,83.04
2018-03-07T05:13:19.076Z,83.10
2018-03-07T05:15:46.580Z,83.13
2018-03-07T05:18:14.077Z,83.16
2018-03-07T05:20:41.616Z,83.22
2018-03-07T05:23:09.175Z,83.25
2018-03-07T05:25:36.676Z,83.23
2018-03-07T05:28:04.200Z,83.29
2018-03-07T05:30:31.684Z,83.34
2018-03-07T05:32:59.191Z,83.40
2018-03-07T05:35:26.695Z,83.38
2018-03-07T05:37:54.203Z,83.35
2018-03-07T05:40:21.708Z,83.30
2018-03-07T05:42:49.207Z,83.23
2018-03-07T05:45:16.707Z,83.28
2018-03-07T05:47:44.211Z,83.29
2018-03-07T05:50:11.716Z,83.34
2018-03-07T05:52:39.208Z,83.36
2018-03-07T05:55:06.691Z,83.41
2018-03-07T05:57:34.204Z,83.44
2018-03-07T06:00:01.693Z,83.42
2018-03-07T06:02:29.199Z,83.38
2018-03-07T06:04:56.712Z,83.45
2018-03-07T06:07:24.247Z,83.49
2018-03-07T06:09:51.869Z,83.52
2018-03-07T06:12:19.367Z,83.55
2018-03-07T06:14:46.893Z,83.59
2018-03-07T06:17:14.387Z,83.66
2018-03-07T06:19:41.882Z,83.64
2018-03-07T06:22:09.359Z,83.55
2018-03-07T06:24:36.854Z,83.44
2018-03-07T06:27:04.334Z,83.33
2018-03-07T06:29:31.778Z,83.24
2018-03-07T06:31:59.291Z,83.15
2018-03-07T06:34:26.803Z,83.08
2018-03-07T06:36:54.287Z,83.04
2018-03-07T06:39:21.773Z,83.00
2018-03-07T06:41:49.260Z,82.92
2018-03-07T06:44:16.906Z,82.84
2018-03-07T06:46:44.389Z,82.85
2018-03-07T06:49:11.883Z,82.89
2018-03-07T06:51:39.392Z,82.91
2018-03-07T06:54:06.862Z,82.92
2018-03-07T06:56:34.348Z,82.96
2018-03-07T06:59:01.853Z,82.98
2018-03-07T07:01:29.352Z,83.00
2018-03-07T07:03:56.827Z,83.02
2018-03-07T07:06:24.325Z,83.00
2018-03-07T07:08:51.828Z,83.09
2018-03-07T07:11:19.385Z,83.09
2018-03-07T07:13:49.257Z,83.18
2018-03-07T07:16:16.746Z,83.25
2018-03-07T07:18:44.251Z,83.29
2018-03-07T07:21:11.746Z,83.32
2018-03-07T07:23:39.248Z,83.34
2018-03-07T07:26:06.762Z,83.36
2018-03-07T07:28:34.244Z,83.41
2018-03-07T07:31:01.720Z,83.43
2018-03-07T07:33:29.213Z,83.46
2018-03-07T07:35:56.706Z,83.50
2018-03-07T07:38:24.243Z,83.55
2018-03-07T07:40:51.814Z,83.60
2018-03-07T07:43:19.397Z,83.63
2018-03-07T07:45:46.857Z,83.70
2018-03-07T07:48:14.340Z,83.74
2018-03-07T07:50:41.854Z,83.82
2018-03-07T07:53:09.372Z,83.82
2018-03-07T07:55:36.940Z,83.83
2018-03-07T07:58:04.423Z,83.87
2018-03-07T08:00:31.909Z,83.92
2018-03-07T08:02:59.454Z,83.99
2018-03-07T08:05:26.955Z,84.08
2018-03-07T08:10:28.480Z,84.19
2018-03-07T08:12:55.960Z,84.22
2018-03-07T08:15:23.439Z,84.28
2018-03-07T08:17:50.915Z,84.36
2018-03-07T08:20:18.483Z,84.41
2018-03-07T08:22:45.956Z,84.48
2018-03-07T08:25:13.457Z,84.57
2018-03-07T08:27:40.983Z,84.74
2018-03-07T08:30:08.459Z,84.78
2018-03-07T08:32:35.948Z,84.75
2018-03-07T08:35:03.532Z,84.76
2018-03-07T08:37:31.038Z,84.76
2018-03-07T08:39:58.547Z,84.73
2018-03-07T08:42:26.904Z,84.71
2018-03-07T08:44:54.557Z,84.70
2018-03-07T08:47:22.099Z,84.71
2018-03-07T08:49:49.594Z,84.78
2018-03-07T08:52:17.080Z,84.85
2018-03-07T08:54:44.600Z,85.00
2018-03-07T08:57:12.102Z,85.16
2018-03-07T08:59:39.600Z,85.40
2018-03-07T09:02:07.074Z,85.18
2018-03-07T09:04:34.645Z,84.54
2018-03-07T09:07:02.244Z,84.27
2018-03-07T09:09:29.813Z,84.24
2018-03-07T09:11:57.419Z,84.01
2018-03-07T09:14:24.913Z,83.66
2018-03-07T09:16:52.395Z,83.55
2018-03-07T09:19:19.888Z,83.39
2018-03-07T09:21:47.361Z,83.23
2018-03-07T09:24:14.864Z,83.02
2018-03-07T09:26:42.360Z,82.39
2018-03-07T09:29:09.850Z,81.75
2018-03-07T09:31:37.335Z,81.81
2018-03-07T09:34:04.864Z,81.58
2018-03-07T09:36:32.353Z,80.74
2018-03-07T09:38:59.868Z,81.17
2018-03-07T09:41:27.376Z,81.41
2018-03-07T09:43:54.853Z,81.58
2018-03-07T09:46:22.327Z,81.66
2018-03-07T09:48:49.847Z,81.84
2018-03-07T09:51:17.325Z,81.86
2018-03-07T09:53:44.839Z,81.89
2018-03-07T09:56:13.490Z,81.14
2018-03-07T09:58:40.940Z,81.18
2018-03-07T10:01:08.473Z,80.83
2018-03-07T10:03:35.998Z,80.74
2018-03-07T10:06:03.491Z,81.13
2018-03-07T10:08:31.035Z,81.43
2018-03-07T10:10:58.620Z,80.78
2018-03-07T10:13:26.115Z,80.21
2018-03-07T10:15:53.987Z,78.95
2018-03-07T10:18:21.611Z,78.39
2018-03-07T10:20:49.141Z,79.19
2018-03-07T10:23:16.646Z,78.74
2018-03-07T10:25:44.179Z,77.05
2018-03-07T10:28:11.690Z,77.07
2018-03-07T10:30:39.200Z,75.99
2018-03-07T10:33:12.268Z,74.59
2018-03-07T10:35:39.913Z,75.86
2018-03-07T10:38:07.445Z,75.96
2018-03-07T10:40:35.030Z,76.01
2018-03-07T10:43:02.589Z,75.73
2018-03-07T10:45:30.173Z,75.94
2018-03-07T10:47:57.694Z,76.06
2018-03-07T10:50:25.546Z,76.72
2018-03-07T10:52:53.079Z,76.67
2018-03-07T10:55:20.604Z,77.11
2018-03-07T10:57:48.208Z,76.83
2018-03-07T11:00:21.367Z,73.95
2018-03-07T11:02:48.864Z,73.05
2018-03-07T11:05:17.041Z,72.04
2018-03-07T11:07:44.539Z,72.07
2018-03-07T11:10:12.099Z,70.52
2018-03-07T11:12:39.604Z,70.41
2018-03-07T11:15:07.239Z,70.26
2018-03-07T11:17:34.748Z,70.33
2018-03-07T11:20:02.249Z,70.47
2018-03-07T11:22:29.834Z,70.01
2018-03-07T11:24:57.360Z,69.35
2018-03-07T11:27:24.934Z,70.52
2018-03-07T11:29:52.423Z,71.27
2018-03-07T11:32:19.984Z,69.71
2018-03-07T11:34:47.544Z,70.22
2018-03-07T11:37:15.039Z,70.76
2018-03-07T11:39:42.597Z,69.65
2018-03-07T11:42:10.185Z,70.44
2018-03-07T11:44:37.713Z,70.03
2018-03-07T11:47:05.252Z,70.20
2018-03-07T11:49:32.817Z,70.78
2018-03-07T11:52:00.328Z,71.24
2018-03-07T11:54:27.884Z,68.53
2018-03-07T11:56:55.404Z,69.54
2018-03-07T11:59:23.801Z,69.06
2018-03-07T12:01:51.308Z,69.67
2018-03-07T12:04:18.927Z,70.62
2018-03-07T12:06:46.512Z,70.52
2018-03-07T12:09:14.041Z,71.29
2018-03-07T12:11:41.529Z,70.46
2018-03-07T12:14:09.024Z,70.02
2018-03-07T12:16:38.636Z,71.76
2018-03-07T12:19:06.326Z,72.06
2018-03-07T12:21:33.903Z,71.48
2018-03-07T12:24:01.416Z,71.11
2018-03-07T12:26:28.943Z,72.03
2018-03-07T12:28:56.471Z,67.98
2018-03-07T12:31:23.985Z,69.14
2018-03-07T12:33:51.493Z,68.38
2018-03-07T12:36:18.976Z,67.83
2018-03-07T12:38:46.624Z,68.40
2018-03-07T12:41:14.127Z,67.48
2018-03-07T12:43:41.630Z,66.68
2018-03-07T12:46:09.166Z,67.43
2018-03-07T12:48:36.756Z,66.97
2018-03-07T12:51:04.428Z,65.58
2018-03-07T12:53:32.854Z,64.55
2018-03-07T12:56:00.834Z,63.96
2018-03-07T12:58:28.384Z,63.52
2018-03-07T13:00:56.036Z,63.69
2018-03-07T13:03:26.071Z,64.34
2018-03-07T13:05:53.606Z,65.38
2018-03-07T13:08:21.116Z,67.00
2018-03-07T13:10:48.626Z,68.35
2018-03-07T13:13:16.131Z,66.58
2018-03-07T13:15:43.817Z,64.69
2018-03-07T13:18:11.368Z,64.95
2018-03-07T13:20:39.013Z,66.12
2018-03-07T13:23:06.525Z,67.20
2018-03-07T13:25:34.086Z,67.82
2018-03-07T13:28:01.637Z,68.57
2018-03-07T13:30:29.136Z,68.87
2018-03-07T13:32:56.729Z,68.11
2018-03-07T13:35:24.477Z,66.07
2018-03-07T13:37:52.051Z,65.21
2018-03-07T13:40:19.577Z,65.19
2018-03-07T13:42:47.072Z,65.00
2018-03-07T13:45:14.668Z,63.20
2018-03-07T13:47:42.220Z,62.56
2018-03-07T13:50:09.717Z,63.49
2018-03-07T13:52:37.206Z,64.38
2018-03-07T13:55:04.735Z,66.60
2018-03-07T13:57:32.260Z,69.19
2018-03-07T13:59:59.780Z,69.24
2018-03-07T14:02:27.294Z,69.34
2018-03-07T14:04:54.807Z,71.69
2018-03-07T14:07:23.239Z,71.64
2018-03-07T14:10:10.925Z,70.52
2018-03-07T14:12:38.454Z,70.19
2018-03-07T14:15:06.024Z,69.48
2018-03-07T14:17:33.726Z,69.58
2018-03-07T14:20:01.250Z,70.68
2018-03-07T14:22:28.895Z,71.18
2018-03-07T14:24:56.388Z,71.87
2018-03-07T14:27:23.920Z,72.13
2018-03-07T14:29:51.449Z,72.32
2018-03-07T14:32:18.947Z,71.02
2018-03-07T14:34:46.488Z,71.37
2018-03-07T14:37:14.047Z,72.98
2018-03-07T14:39:41.556Z,73.63
2018-03-07T14:42:09.135Z,71.03
2018-03-07T14:44:36.658Z,68.22
2018-03-07T14:47:04.208Z,68.08
2018-03-07T14:49:32.780Z,66.77
2018-03-07T14:52:00.296Z,66.25
2018-03-07T14:54:27.788Z,65.01
2018-03-07T14:56:55.287Z,64.66
2018-03-07T14:59:23.036Z,63.29
2018-03-07T15:01:50.585Z,62.42
2018-03-07T15:04:18.170Z,63.20
2018-03-07T15:06:45.746Z,64.04
2018-03-07T15:09:13.263Z,64.57
2018-03-07T15:11:40.836Z,64.75
2018-03-07T15:14:08.383Z,63.18
2018-03-07T15:16:35.884Z,62.54
2018-03-07T15:19:03.452Z,63.60
2018-03-07T15:21:30.997Z,64.31
2018-03-07T15:23:58.524Z,63.23
2018-03-07T15:26:26.046Z,62.11
2018-03-07T15:28:53.689Z,60.06
2018-03-07T15:31:21.268Z,60.09
2018-03-07T15:33:48.837Z,60.54
2018-03-07T15:36:16.387Z,59.87
2018-03-07T15:38:43.887Z,58.15
2018-03-07T15:41:11.428Z,57.85
2018-03-07T15:43:38.993Z,59.03
2018-03-07T15:46:06.478Z,58.35
2018-03-07T15:48:34.034Z,59.68
2018-03-07T15:51:01.612Z,59.50
2018-03-07T15:53:29.119Z,61.29
2018-03-07T15:55:56.680Z,63.12
2018-03-07T15:58:24.280Z,64.56
2018-03-07T16:00:51.786Z,64.80
2018-03-07T16:03:19.291Z,66.01
2018-03-07T16:05:46.863Z,66.79
2018-03-07T16:08:14.365Z,67.32
2018-03-07T16:10:41.929Z,67.47
2018-03-07T16:13:09.422Z,67.96
2018-03-07T16:15:36.912Z,68.26
2018-03-07T16:18:04.471Z,68.43
2018-03-07T16:20:32.051Z,67.44
2018-03-07T16:22:59.849Z,66.88
2018-03-07T16:25:27.377Z,66.00
2018-03-07T16:27:54.908Z,65.67
2018-03-07T16:30:22.420Z,64.22
2018-03-07T16:32:49.992Z,62.21
2018-03-07T16:35:17.516Z,62.08
2018-03-07T16:37:45.027Z,61.48
2018-03-07T16:40:14.182Z,61.31
2018-03-07T16:42:41.681Z,60.35
2018-03-07T16:45:09.295Z,60.52
2018-03-07T16:47:36.783Z,59.76
2018-03-07T16:50:04.295Z,60.15
2018-03-07T16:52:31.840Z,59.54
2018-03-07T16:54:59.416Z,59.86
2018-03-07T16:57:26.899Z,60.12
2018-03-07T16:59:54.400Z,59.34
2018-03-07T17:02:21.898Z,60.01
2018-03-07T17:04:49.454Z,59.56
2018-03-07T17:07:16.967Z,60.26
2018-03-07T17:09:44.560Z,61.36
2018-03-07T17:12:12.156Z,61.92
2018-03-07T17:14:39.681Z,62.67
2018-03-07T17:17:07.192Z,63.15
2018-03-07T17:19:34.724Z,63.67
2018-03-07T17:22:02.246Z,63.89
2018-03-07T17:24:29.740Z,64.85
2018-03-07T17:26:57.324Z,65.33
2018-03-07T17:29:24.905Z,66.53
2018-03-07T17:31:52.438Z,66.61
2018-03-07T17:34:21.078Z,66.81
2018-03-07T17:36:48.653Z,67.05
2018-03-07T17:39:16.203Z,67.63
2018-03-07T17:41:43.704Z,67.52
2018-03-07T17:44:11.974Z,68.04
2018-03-07T17:46:39.489Z,68.07
2018-03-07T17:49:07.015Z,68.22
2018-03-07T17:51:34.562Z,68.84
2018-03-07T17:54:02.106Z,69.49
2018-03-07T17:56:29.679Z,70.32
2018-03-07T17:58:57.170Z,70.51
2018-03-07T18:01:24.659Z,71.24
2018-03-07T18:03:52.161Z,71.24
2018-03-07T18:06:19.673Z,71.93
2018-03-07T18:08:47.179Z,72.19
2018-03-07T18:11:14.667Z,72.97
2018-03-07T18:13:42.175Z,72.67
2018-03-07T18:16:09.655Z,72.38
2018-03-07T18:18:37.156Z,72.77
2018-03-07T18:21:04.681Z,72.87
2018-03-07T18:23:32.174Z,72.83
2018-03-07T18:25:59.664Z,73.04
2018-03-07T18:28:27.166Z,73.68
2018-03-07T18:30:54.679Z,73.63
2018-03-07T18:33:22.175Z,73.65
2018-03-07T18:35:49.668Z,73.73
2018-03-07T18:38:17.162Z,74.72
2018-03-07T18:40:44.643Z,74.51
2018-03-07T18:43:12.136Z,74.54
2018-03-07T18:45:39.622Z,74.65
2018-03-07T18:48:07.108Z,74.64
2018-03-07T18:50:34.706Z,74.71
2018-03-07T18:53:02.228Z,74.67
2018-03-07T18:55:29.723Z,74.60
2018-03-07T18:57:57.191Z,74.55
2018-03-07T19:00:24.703Z,74.54
2018-03-07T19:02:52.187Z,74.58
2018-03-07T19:05:19.663Z,74.64
2018-03-07T19:07:47.140Z,74.66
2018-03-07T19:10:14.619Z,74.71
2018-03-07T19:12:42.118Z,74.78
2018-03-07T19:15:09.593Z,74.81
2018-03-07T19:17:37.138Z,74.86
2018-03-07T19:20:04.616Z,74.92
2018-03-07T19:22:32.111Z,75.03
2018-03-07T19:24:59.607Z,75.11
2018-03-07T19:27:27.087Z,75.32
2018-03-07T19:29:55.087Z,75.50
2018-03-07T19:32:22.591Z,75.62
2018-03-07T19:34:50.071Z,76.21
2018-03-07T19:37:17.583Z,76.34
2018-03-07T19:39:45.073Z,76.28
2018-03-07T19:42:12.543Z,76.31
2018-03-07T19:44:40.052Z,76.29
2018-03-07T19:47:07.555Z,76.34
2018-03-07T19:49:35.048Z,76.49
2018-03-07T19:52:02.540Z,76.53
2018-03-07T19:54:30.027Z,76.62
2018-03-07T19:56:57.546Z,76.73
2018-03-07T19:59:25.215Z,76.85
2018-03-07T20:01:52.706Z,77.19
2018-03-07T20:04:20.223Z,77.20
2018-03-07T20:06:47.761Z,77.26
2018-03-07T20:09:15.250Z,77.29
2018-03-07T20:11:42.758Z,77.37
2018-03-07T20:14:10.263Z,77.39
2018-03-07T20:16:37.891Z,77.41
2018-03-07T20:19:05.363Z,77.37
2018-03-07T20:21:32.846Z,77.32
2018-03-07T20:24:00.396Z,77.32
2018-03-07T20:26:27.893Z,77.35
2018-03-07T20:28:55.379Z,77.36
2018-03-07T20:31:22.856Z,77.33
2018-03-07T20:33:50.328Z,77.25
2018-03-07T20:36:17.811Z,77.18
2018-03-07T20:38:45.351Z,77.18
2018-03-07T20:41:12.830Z,77.19
2018-03-07T20:43:40.299Z,77.26
2018-03-07T20:46:07.787Z,77.36
2018-03-07T20:48:35.299Z,77.50
2018-03-07T20:51:02.787Z,77.64
2018-03-07T20:53:30.302Z,77.71
2018-03-07T20:55:57.788Z,77.81
2018-03-07T20:58:25.263Z,77.96
2018-03-07T21:00:52.762Z,78.01
2018-03-07T21:03:20.259Z,78.07
2018-03-07T21:05:47.803Z,78.11
2018-03-07T21:08:15.315Z,78.22
2018-03-07T21:10:42.783Z,78.24
2018-03-07T21:13:10.291Z,78.30
2018-03-07T21:15:37.775Z,78.34
2018-03-07T21:18:05.248Z,78.40
2018-03-07T21:20:32.753Z,78.44
2018-03-07T21:23:00.324Z,78.45
2018-03-07T21:25:28.072Z,78.46
2018-03-07T21:27:55.551Z,78.45
2018-03-07T21:30:23.049Z,78.48
2018-03-07T21:32:50.535Z,78.57
2018-03-07T21:35:18.023Z,78.57
2018-03-07T21:37:45.503Z,78.55
2018-03-07T21:40:12.986Z,78.56
2018-03-07T21:42:40.460Z,78.55
2018-03-07T21:45:07.964Z,78.53
2018-03-07T21:47:35.491Z,78.52
2018-03-07T21:50:03.062Z,78.53
2018-03-07T21:52:30.698Z,78.55
2018-03-07T21:54:58.266Z,78.55
2018-03-07T21:57:25.770Z,78.53
2018-03-07T21:59:53.245Z,78.53
2018-03-07T22:02:20.723Z,78.53
2018-03-07T22:04:48.194Z,78.58
2018-03-07T22:07:15.719Z,78.60
2018-03-07T22:09:43.207Z,78.65
2018-03-07T22:12:10.694Z,78.68
2018-03-07T22:14:38.216Z,78.71
2018-03-07T22:17:05.683Z,78.71
2018-03-07T22:19:33.171Z,78.79
2018-03-07T22:22:00.687Z,78.83
2018-03-07T22:24:28.183Z,78.86
2018-03-07T22:26:55.659Z,78.86
2018-03-07T22:29:23.130Z,78.84
2018-03-07T22:31:50.611Z,78.83
2018-03-07T22:34:18.091Z,78.83
2018-03-07T22:36:45.570Z,78.81
2018-03-07T22:39:13.060Z,78.84
2018-03-07T22:41:40.546Z,78.86
2018-03-07T22:44:08.017Z,78.92
2018-03-07T22:46:35.508Z,78.95
2018-03-07T22:49:02.987Z,79.12
2018-03-07T22:51:30.498Z,79.08
2018-03-07T22:53:57.987Z,79.06
2018-03-07T22:56:25.512Z,79.15
2018-03-07T22:58:52.996Z,79.20
2018-03-07T23:01:20.482Z,79.16
2018-03-07T23:03:47.969Z,79.14
2018-03-07T23:06:15.553Z,79.15
2018-03-07T23:08:43.035Z,79.07
2018-03-07T23:11:10.529Z,79.02
2018-03-07T23:13:38.015Z,78.99
2018-03-07T23:16:05.520Z,78.96
2018-03-07T23:18:32.991Z,78.96
2018-03-07T23:21:00.516Z,79.07
2018-03-07T23:23:28.015Z,79.07
2018-03-07T23:25:55.499Z,79.07
2018-03-07T23:28:23.003Z,79.11
2018-03-07T23:30:50.487Z,79.18
2018-03-07T23:33:18.000Z,79.20
2018-03-07T23:35:45.466Z,79.22
2018-03-07T23:38:12.932Z,79.28
2018-03-07T23:40:40.410Z,79.43
2018-03-07T23:43:07.934Z,79.45
2018-03-07T23:45:35.435Z,79.48
2018-03-07T23:48:02.906Z,79.52
2018-03-07T23:50:30.380Z,79.59
2018-03-07T23:52:57.864Z,79.59
2018-03-07T23:55:25.334Z,79.93
2018-03-07T23:57:52.827Z,80.29
